sensor_id;sensor_type;location;lat;lon;timestamp;P1;durP1;ratioP1;P2;durP2;ratioP2
23472;SDS011;11909;52.516;13.564;2023-02-15T00:01:47;33.90;;;20.42;;
23472;SDS011;11909;52.516;13.564;2023-02-15T00:04:19;40.20;;;24.67;;
23472;SDS011;11909;52.516;13.564;2023-02-15T00:06:50;33.97;;;21.67;;
23472;SDS011;11909;52.516;13.564;2023-02-15T00:09:17;35.42;;;22.67;;
23472;SDS011;11909;52.516;13.564;2023-02-15T00:11:45;35.70;;;22.85;;
23472;SDS011;11909;52.516;13.564;2023-02-15T00:14:17;33.05;;;20.73;;
23472;SDS011;11909;52.516;13.564;2023-02-15T00:16:47;38.28;;;22.50;;
23472;SDS011;11909;52.516;13.564;2023-02-15T00:19:17;37.58;;;23.45;;
23472;SDS011;11909;52.516;13.564;2023-02-15T00:21:47;37.60;;;22.75;;
23472;SDS011;11909;52.516;13.564;2023-02-15T00:24:17;38.42;;;24.15;;
23472;SDS011;11909;52.516;13.564;2023-02-15T00:26:46;38.20;;;24.30;;
23472;SDS011;11909;52.516;13.564;2023-02-15T00:29:15;36.85;;;22.05;;
23472;SDS011;11909;52.516;13.564;2023-02-15T00:31:44;35.27;;;21.83;;
23472;SDS011;11909;52.516;13.564;2023-02-15T00:34:13;39.65;;;22.88;;
23472;SDS011;11909;52.516;13.564;2023-02-15T00:36:42;38.08;;;23.17;;
23472;SDS011;11909;52.516;13.564;2023-02-15T00:39:11;39.20;;;23.77;;
23472;SDS011;11909;52.516;13.564;2023-02-15T00:41:40;99.05;;;51.90;;
23472;SDS011;11909;52.516;13.564;2023-02-15T00:44:08;43.28;;;26.27;;
23472;SDS011;11909;52.516;13.564;2023-02-15T00:46:36;43.92;;;24.35;;
23472;SDS011;11909;52.516;13.564;2023-02-15T00:49:04;39.65;;;24.58;;
23472;SDS011;11909;52.516;13.564;2023-02-15T00:51:32;44.55;;;25.60;;
23472;SDS011;11909;52.516;13.564;2023-02-15T00:54:00;38.92;;;23.90;;
23472;SDS011;11909;52.516;13.564;2023-02-15T00:56:28;39.58;;;24.42;;
23472;SDS011;11909;52.516;13.564;2023-02-15T00:58:57;40.47;;;25.35;;
23472;SDS011;11909;52.516;13.564;2023-02-15T01:01:24;38.33;;;23.67;;
23472;SDS011;11909;52.516;13.564;2023-02-15T01:03:52;43.25;;;25.10;;
23472;SDS011;11909;52.516;13.564;2023-02-15T01:06:20;39.67;;;23.95;;
23472;SDS011;11909;52.516;13.564;2023-02-15T01:08:48;37.72;;;22.80;;
23472;SDS011;11909;52.516;13.564;2023-02-15T01:11:16;42.92;;;25.17;;
23472;SDS011;11909;52.516;13.564;2023-02-15T01:13:48;41.38;;;24.73;;
23472;SDS011;11909;52.516;13.564;2023-02-15T01:16:18;40.83;;;23.50;;
23472;SDS011;11909;52.516;13.564;2023-02-15T01:18:46;49.97;;;28.00;;
23472;SDS011;11909;52.516;13.564;2023-02-15T01:21:15;50.95;;;27.58;;
23472;SDS011;11909;52.516;13.564;2023-02-15T01:23:44;46.72;;;27.27;;
23472;SDS011;11909;52.516;13.564;2023-02-15T01:26:12;44.35;;;25.27;;
23472;SDS011;11909;52.516;13.564;2023-02-15T01:28:40;45.08;;;27.52;;
23472;SDS011;11909;52.516;13.564;2023-02-15T01:31:09;50.90;;;27.33;;
23472;SDS011;11909;52.516;13.564;2023-02-15T01:33:39;45.87;;;26.40;;
23472;SDS011;11909;52.516;13.564;2023-02-15T01:36:07;43.28;;;24.63;;
23472;SDS011;11909;52.516;13.564;2023-02-15T01:38:35;42.35;;;24.20;;
23472;SDS011;11909;52.516;13.564;2023-02-15T01:41:03;43.90;;;24.95;;
23472;SDS011;11909;52.516;13.564;2023-02-15T01:43:48;42.38;;;24.60;;
23472;SDS011;11909;52.516;13.564;2023-02-15T01:46:17;39.15;;;24.35;;
23472;SDS011;11909;52.516;13.564;2023-02-15T01:48:52;46.50;;;26.17;;
23472;SDS011;11909;52.516;13.564;2023-02-15T01:51:23;48.17;;;27.02;;
23472;SDS011;11909;52.516;13.564;2023-02-15T01:53:53;44.17;;;25.80;;
23472;SDS011;11909;52.516;13.564;2023-02-15T01:56:27;40.20;;;23.05;;
23472;SDS011;11909;52.516;13.564;2023-02-15T01:58:59;46.88;;;26.33;;
23472;SDS011;11909;52.516;13.564;2023-02-15T02:01:31;46.08;;;26.45;;
23472;SDS011;11909;52.516;13.564;2023-02-15T02:04:02;47.47;;;26.30;;
23472;SDS011;11909;52.516;13.564;2023-02-15T02:06:36;45.95;;;26.27;;
23472;SDS011;11909;52.516;13.564;2023-02-15T02:09:06;46.10;;;26.75;;
23472;SDS011;11909;52.516;13.564;2023-02-15T02:11:34;50.22;;;27.33;;
23472;SDS011;11909;52.516;13.564;2023-02-15T02:14:02;45.38;;;25.70;;
23472;SDS011;11909;52.516;13.564;2023-02-15T02:16:32;42.85;;;25.00;;
23472;SDS011;11909;52.516;13.564;2023-02-15T02:19:16;54.33;;;28.90;;
23472;SDS011;11909;52.516;13.564;2023-02-15T02:25:28;56.13;;;28.95;;
23472;SDS011;11909;52.516;13.564;2023-02-15T02:28:28;53.50;;;29.02;;
23472;SDS011;11909;52.516;13.564;2023-02-15T02:31:28;58.17;;;29.73;;
23472;SDS011;11909;52.516;13.564;2023-02-15T02:34:09;58.42;;;29.50;;
23472;SDS011;11909;52.516;13.564;2023-02-15T02:36:41;51.67;;;28.75;;
23472;SDS011;11909;52.516;13.564;2023-02-15T02:39:21;52.67;;;29.30;;
23472;SDS011;11909;52.516;13.564;2023-02-15T02:41:57;53.67;;;29.35;;
23472;SDS011;11909;52.516;13.564;2023-02-15T02:44:29;53.08;;;29.65;;
23472;SDS011;11909;52.516;13.564;2023-02-15T02:47:03;61.55;;;30.15;;
23472;SDS011;11909;52.516;13.564;2023-02-15T02:49:35;60.80;;;31.20;;
23472;SDS011;11909;52.516;13.564;2023-02-15T02:52:06;72.43;;;35.85;;
23472;SDS011;11909;52.516;13.564;2023-02-15T02:54:54;68.68;;;34.97;;
23472;SDS011;11909;52.516;13.564;2023-02-15T02:57:23;68.60;;;35.80;;
23472;SDS011;11909;52.516;13.564;2023-02-15T02:59:52;70.65;;;35.38;;
23472;SDS011;11909;52.516;13.564;2023-02-15T03:02:23;73.40;;;35.53;;
23472;SDS011;11909;52.516;13.564;2023-02-15T03:04:57;65.20;;;32.95;;
23472;SDS011;11909;52.516;13.564;2023-02-15T03:07:32;63.72;;;32.42;;
23472;SDS011;11909;52.516;13.564;2023-02-15T03:10:02;62.77;;;32.57;;
23472;SDS011;11909;52.516;13.564;2023-02-15T03:15:02;55.85;;;30.33;;
23472;SDS011;11909;52.516;13.564;2023-02-15T03:20:04;65.72;;;34.42;;
23472;SDS011;11909;52.516;13.564;2023-02-15T03:22:36;64.38;;;31.83;;
23472;SDS011;11909;52.516;13.564;2023-02-15T03:25:08;64.20;;;32.75;;
23472;SDS011;11909;52.516;13.564;2023-02-15T03:27:40;66.00;;;31.42;;
23472;SDS011;11909;52.516;13.564;2023-02-15T03:30:12;61.65;;;31.08;;
23472;SDS011;11909;52.516;13.564;2023-02-15T03:32:42;68.90;;;32.03;;
23472;SDS011;11909;52.516;13.564;2023-02-15T03:35:13;75.85;;;35.20;;
23472;SDS011;11909;52.516;13.564;2023-02-15T03:37:42;70.43;;;34.80;;
23472;SDS011;11909;52.516;13.564;2023-02-15T03:40:16;67.82;;;34.78;;
23472;SDS011;11909;52.516;13.564;2023-02-15T03:43:05;67.85;;;34.15;;
23472;SDS011;11909;52.516;13.564;2023-02-15T03:45:42;71.07;;;33.92;;
23472;SDS011;11909;52.516;13.564;2023-02-15T03:48:22;66.65;;;33.88;;
23472;SDS011;11909;52.516;13.564;2023-02-15T03:50:55;66.45;;;33.55;;
23472;SDS011;11909;52.516;13.564;2023-02-15T03:53:45;62.80;;;31.05;;
23472;SDS011;11909;52.516;13.564;2023-02-15T03:56:14;68.90;;;33.90;;
23472;SDS011;11909;52.516;13.564;2023-02-15T03:58:42;61.92;;;32.03;;
23472;SDS011;11909;52.516;13.564;2023-02-15T04:01:29;64.13;;;32.42;;
23472;SDS011;11909;52.516;13.564;2023-02-15T04:04:20;72.38;;;33.83;;
23472;SDS011;11909;52.516;13.564;2023-02-15T04:06:52;66.18;;;33.58;;
23472;SDS011;11909;52.516;13.564;2023-02-15T04:09:20;68.55;;;33.53;;
23472;SDS011;11909;52.516;13.564;2023-02-15T04:12:05;63.95;;;32.95;;
23472;SDS011;11909;52.516;13.564;2023-02-15T04:14:32;63.85;;;33.05;;
23472;SDS011;11909;52.516;13.564;2023-02-15T04:17:18;70.88;;;34.67;;
23472;SDS011;11909;52.516;13.564;2023-02-15T04:19:46;69.05;;;32.63;;
23472;SDS011;11909;52.516;13.564;2023-02-15T04:22:32;66.25;;;34.90;;
23472;SDS011;11909;52.516;13.564;2023-02-15T04:25:17;67.68;;;34.45;;
23472;SDS011;11909;52.516;13.564;2023-02-15T04:27:47;75.55;;;34.22;;
23472;SDS011;11909;52.516;13.564;2023-02-15T04:30:17;72.55;;;34.00;;
23472;SDS011;11909;52.516;13.564;2023-02-15T04:32:45;74.97;;;34.90;;
23472;SDS011;11909;52.516;13.564;2023-02-15T04:35:14;59.70;;;31.25;;
23472;SDS011;11909;52.516;13.564;2023-02-15T04:37:43;67.35;;;34.05;;
23472;SDS011;11909;52.516;13.564;2023-02-15T04:40:12;70.03;;;33.75;;
23472;SDS011;11909;52.516;13.564;2023-02-15T04:42:45;70.90;;;34.90;;
23472;SDS011;11909;52.516;13.564;2023-02-15T04:45:14;65.40;;;32.90;;
23472;SDS011;11909;52.516;13.564;2023-02-15T04:47:42;66.53;;;34.15;;
23472;SDS011;11909;52.516;13.564;2023-02-15T04:50:10;70.50;;;34.38;;
23472;SDS011;11909;52.516;13.564;2023-02-15T04:52:38;70.78;;;35.63;;
23472;SDS011;11909;52.516;13.564;2023-02-15T04:55:08;66.45;;;33.33;;
23472;SDS011;11909;52.516;13.564;2023-02-15T04:57:36;71.35;;;34.63;;
23472;SDS011;11909;52.516;13.564;2023-02-15T05:00:04;70.05;;;34.33;;
23472;SDS011;11909;52.516;13.564;2023-02-15T05:02:32;63.53;;;32.72;;
23472;SDS011;11909;52.516;13.564;2023-02-15T05:05:00;71.43;;;33.75;;
23472;SDS011;11909;52.516;13.564;2023-02-15T05:07:27;64.32;;;34.22;;
23472;SDS011;11909;52.516;13.564;2023-02-15T05:09:55;71.88;;;36.47;;
23472;SDS011;11909;52.516;13.564;2023-02-15T05:12:24;69.88;;;35.10;;
23472;SDS011;11909;52.516;13.564;2023-02-15T05:14:52;72.82;;;35.33;;
23472;SDS011;11909;52.516;13.564;2023-02-15T05:17:19;68.47;;;34.80;;
23472;SDS011;11909;52.516;13.564;2023-02-15T05:19:47;68.82;;;35.28;;
23472;SDS011;11909;52.516;13.564;2023-02-15T05:22:15;69.28;;;35.08;;
23472;SDS011;11909;52.516;13.564;2023-02-15T05:24:42;69.38;;;33.90;;
23472;SDS011;11909;52.516;13.564;2023-02-15T05:27:29;67.80;;;33.58;;
23472;SDS011;11909;52.516;13.564;2023-02-15T05:30:14;67.65;;;34.58;;
23472;SDS011;11909;52.516;13.564;2023-02-15T05:32:42;70.03;;;34.30;;
23472;SDS011;11909;52.516;13.564;2023-02-15T05:35:12;66.72;;;34.60;;
23472;SDS011;11909;52.516;13.564;2023-02-15T05:37:41;72.32;;;36.20;;
23472;SDS011;11909;52.516;13.564;2023-02-15T05:40:09;69.03;;;34.17;;
23472;SDS011;11909;52.516;13.564;2023-02-15T05:42:39;68.20;;;34.90;;
23472;SDS011;11909;52.516;13.564;2023-02-15T05:45:07;70.47;;;36.50;;
23472;SDS011;11909;52.516;13.564;2023-02-15T05:47:34;69.13;;;35.35;;
23472;SDS011;11909;52.516;13.564;2023-02-15T05:50:02;68.03;;;34.78;;
23472;SDS011;11909;52.516;13.564;2023-02-15T05:52:30;68.53;;;34.95;;
23472;SDS011;11909;52.516;13.564;2023-02-15T05:54:58;72.03;;;35.42;;
23472;SDS011;11909;52.516;13.564;2023-02-15T05:57:26;71.28;;;34.72;;
23472;SDS011;11909;52.516;13.564;2023-02-15T05:59:55;73.60;;;37.00;;
23472;SDS011;11909;52.516;13.564;2023-02-15T06:02:23;82.00;;;36.77;;
23472;SDS011;11909;52.516;13.564;2023-02-15T06:04:51;74.45;;;36.13;;
23472;SDS011;11909;52.516;13.564;2023-02-15T06:07:19;80.57;;;37.08;;
23472;SDS011;11909;52.516;13.564;2023-02-15T06:09:46;74.60;;;36.00;;
23472;SDS011;11909;52.516;13.564;2023-02-15T06:12:14;72.75;;;35.17;;
23472;SDS011;11909;52.516;13.564;2023-02-15T06:14:42;71.63;;;35.10;;
23472;SDS011;11909;52.516;13.564;2023-02-15T06:17:11;75.30;;;36.95;;
23472;SDS011;11909;52.516;13.564;2023-02-15T06:19:39;78.15;;;37.58;;
23472;SDS011;11909;52.516;13.564;2023-02-15T06:22:06;81.65;;;36.13;;
23472;SDS011;11909;52.516;13.564;2023-02-15T06:24:34;78.38;;;36.28;;
23472;SDS011;11909;52.516;13.564;2023-02-15T06:27:02;70.50;;;35.30;;
23472;SDS011;11909;52.516;13.564;2023-02-15T06:29:30;73.00;;;34.60;;
23472;SDS011;11909;52.516;13.564;2023-02-15T06:31:57;88.10;;;35.83;;
23472;SDS011;11909;52.516;13.564;2023-02-15T06:34:26;76.93;;;37.42;;
23472;SDS011;11909;52.516;13.564;2023-02-15T06:36:54;81.38;;;33.78;;
23472;SDS011;11909;52.516;13.564;2023-02-15T06:39:22;68.55;;;33.92;;
23472;SDS011;11909;52.516;13.564;2023-02-15T06:41:50;72.72;;;35.00;;
23472;SDS011;11909;52.516;13.564;2023-02-15T06:44:17;80.68;;;34.70;;
23472;SDS011;11909;52.516;13.564;2023-02-15T06:46:45;66.40;;;32.58;;
23472;SDS011;11909;52.516;13.564;2023-02-15T06:49:13;84.60;;;34.35;;
23472;SDS011;11909;52.516;13.564;2023-02-15T06:51:42;79.05;;;34.53;;
23472;SDS011;11909;52.516;13.564;2023-02-15T06:54:09;80.60;;;35.25;;
23472;SDS011;11909;52.516;13.564;2023-02-15T06:56:37;89.50;;;34.33;;
23472;SDS011;11909;52.516;13.564;2023-02-15T06:59:05;67.00;;;32.67;;
23472;SDS011;11909;52.516;13.564;2023-02-15T07:01:33;70.88;;;32.75;;
23472;SDS011;11909;52.516;13.564;2023-02-15T07:04:03;175.85;;;38.25;;
23472;SDS011;11909;52.516;13.564;2023-02-15T07:06:31;86.95;;;33.75;;
23472;SDS011;11909;52.516;13.564;2023-02-15T07:09:01;76.22;;;35.35;;
23472;SDS011;11909;52.516;13.564;2023-02-15T07:11:29;74.55;;;33.60;;
23472;SDS011;11909;52.516;13.564;2023-02-15T07:14:15;78.88;;;33.45;;
23472;SDS011;11909;52.516;13.564;2023-02-15T07:16:43;75.93;;;32.65;;
23472;SDS011;11909;52.516;13.564;2023-02-15T07:19:10;172.32;;;34.22;;
23472;SDS011;11909;52.516;13.564;2023-02-15T07:21:38;139.65;;;32.92;;
23472;SDS011;11909;52.516;13.564;2023-02-15T07:24:07;75.95;;;31.23;;
23472;SDS011;11909;52.516;13.564;2023-02-15T07:26:35;78.40;;;31.08;;
23472;SDS011;11909;52.516;13.564;2023-02-15T07:29:02;70.07;;;29.92;;
23472;SDS011;11909;52.516;13.564;2023-02-15T07:31:30;70.43;;;31.45;;
23472;SDS011;11909;52.516;13.564;2023-02-15T07:33:58;72.63;;;31.35;;
23472;SDS011;11909;52.516;13.564;2023-02-15T07:36:25;105.95;;;33.25;;
23472;SDS011;11909;52.516;13.564;2023-02-15T07:38:53;72.53;;;31.58;;
23472;SDS011;11909;52.516;13.564;2023-02-15T07:41:22;93.80;;;30.65;;
23472;SDS011;11909;52.516;13.564;2023-02-15T07:43:50;217.55;;;35.22;;
23472;SDS011;11909;52.516;13.564;2023-02-15T07:46:18;60.05;;;28.55;;
23472;SDS011;11909;52.516;13.564;2023-02-15T07:48:47;77.22;;;31.58;;
23472;SDS011;11909;52.516;13.564;2023-02-15T07:51:14;66.90;;;32.22;;
23472;SDS011;11909;52.516;13.564;2023-02-15T07:53:42;86.38;;;31.98;;
23472;SDS011;11909;52.516;13.564;2023-02-15T07:56:11;71.90;;;31.60;;
23472;SDS011;11909;52.516;13.564;2023-02-15T07:58:41;67.63;;;31.80;;
23472;SDS011;11909;52.516;13.564;2023-02-15T08:01:19;72.35;;;31.23;;
23472;SDS011;11909;52.516;13.564;2023-02-15T08:03:48;58.22;;;30.45;;
23472;SDS011;11909;52.516;13.564;2023-02-15T08:06:16;60.65;;;30.77;;
23472;SDS011;11909;52.516;13.564;2023-02-15T08:08:44;68.50;;;32.42;;
23472;SDS011;11909;52.516;13.564;2023-02-15T08:11:15;67.75;;;30.38;;
23472;SDS011;11909;52.516;13.564;2023-02-15T08:14:04;164.63;;;32.22;;
23472;SDS011;11909;52.516;13.564;2023-02-15T08:16:34;75.60;;;31.80;;
23472;SDS011;11909;52.516;13.564;2023-02-15T08:21:33;191.20;;;35.30;;
23472;SDS011;11909;52.516;13.564;2023-02-15T08:24:02;99.15;;;31.10;;
23472;SDS011;11909;52.516;13.564;2023-02-15T08:26:31;96.45;;;33.20;;
23472;SDS011;11909;52.516;13.564;2023-02-15T08:28:59;198.65;;;35.22;;
23472;SDS011;11909;52.516;13.564;2023-02-15T08:31:29;78.32;;;31.95;;
23472;SDS011;11909;52.516;13.564;2023-02-15T08:33:57;104.75;;;39.40;;
23472;SDS011;11909;52.516;13.564;2023-02-15T08:36:26;78.93;;;31.98;;
23472;SDS011;11909;52.516;13.564;2023-02-15T08:38:55;85.17;;;33.03;;
23472;SDS011;11909;52.516;13.564;2023-02-15T08:41:25;80.55;;;33.58;;
23472;SDS011;11909;52.516;13.564;2023-02-15T08:43:55;119.97;;;35.17;;
23472;SDS011;11909;52.516;13.564;2023-02-15T08:46:25;118.35;;;33.58;;
23472;SDS011;11909;52.516;13.564;2023-02-15T08:48:55;110.82;;;32.25;;
23472;SDS011;11909;52.516;13.564;2023-02-15T08:51:24;99.93;;;35.73;;
23472;SDS011;11909;52.516;13.564;2023-02-15T08:53:53;83.47;;;34.70;;
23472;SDS011;11909;52.516;13.564;2023-02-15T08:56:23;138.83;;;38.93;;
23472;SDS011;11909;52.516;13.564;2023-02-15T08:58:52;87.32;;;35.13;;
23472;SDS011;11909;52.516;13.564;2023-02-15T09:01:21;74.95;;;34.80;;
23472;SDS011;11909;52.516;13.564;2023-02-15T09:03:50;95.05;;;34.55;;
23472;SDS011;11909;52.516;13.564;2023-02-15T09:06:21;82.20;;;32.88;;
23472;SDS011;11909;52.516;13.564;2023-02-15T09:08:49;69.68;;;32.20;;
23472;SDS011;11909;52.516;13.564;2023-02-15T09:11:18;105.07;;;34.70;;
23472;SDS011;11909;52.516;13.564;2023-02-15T09:13:51;81.00;;;33.30;;
23472;SDS011;11909;52.516;13.564;2023-02-15T09:16:21;76.43;;;32.67;;
23472;SDS011;11909;52.516;13.564;2023-02-15T09:18:50;68.40;;;31.13;;
23472;SDS011;11909;52.516;13.564;2023-02-15T09:21:19;69.78;;;31.48;;
23472;SDS011;11909;52.516;13.564;2023-02-15T09:23:50;96.85;;;37.70;;
23472;SDS011;11909;52.516;13.564;2023-02-15T09:26:19;101.00;;;35.38;;
23472;SDS011;11909;52.516;13.564;2023-02-15T09:28:51;80.32;;;32.67;;
23472;SDS011;11909;52.516;13.564;2023-02-15T09:31:22;101.55;;;35.38;;
23472;SDS011;11909;52.516;13.564;2023-02-15T09:33:50;78.68;;;35.00;;
23472;SDS011;11909;52.516;13.564;2023-02-15T09:36:19;75.10;;;32.92;;
23472;SDS011;11909;52.516;13.564;2023-02-15T09:38:52;83.88;;;35.60;;
23472;SDS011;11909;52.516;13.564;2023-02-15T09:41:46;77.85;;;34.95;;
23472;SDS011;11909;52.516;13.564;2023-02-15T09:44:29;77.65;;;34.10;;
23472;SDS011;11909;52.516;13.564;2023-02-15T09:47:16;84.75;;;35.03;;
23472;SDS011;11909;52.516;13.564;2023-02-15T09:50:00;88.22;;;34.78;;
23472;SDS011;11909;52.516;13.564;2023-02-15T09:52:36;68.50;;;32.95;;
23472;SDS011;11909;52.516;13.564;2023-02-15T09:55:19;72.82;;;32.50;;
23472;SDS011;11909;52.516;13.564;2023-02-15T10:00:33;67.53;;;31.92;;
23472;SDS011;11909;52.516;13.564;2023-02-15T10:03:11;78.57;;;33.45;;
23472;SDS011;11909;52.516;13.564;2023-02-15T10:05:52;74.50;;;32.58;;
23472;SDS011;11909;52.516;13.564;2023-02-15T10:08:35;75.25;;;35.22;;
23472;SDS011;11909;52.516;13.564;2023-02-15T10:11:16;67.05;;;31.70;;
23472;SDS011;11909;52.516;13.564;2023-02-15T10:14:12;68.43;;;32.58;;
23472;SDS011;11909;52.516;13.564;2023-02-15T10:16:51;73.03;;;33.67;;
23472;SDS011;11909;52.516;13.564;2023-02-15T10:19:32;75.68;;;34.30;;
23472;SDS011;11909;52.516;13.564;2023-02-15T10:27:52;65.88;;;31.48;;
23472;SDS011;11909;52.516;13.564;2023-02-15T10:30:22;59.90;;;29.77;;
23472;SDS011;11909;52.516;13.564;2023-02-15T10:32:58;62.47;;;30.98;;
23472;SDS011;11909;52.516;13.564;2023-02-15T10:35:31;65.50;;;32.03;;
23472;SDS011;11909;52.516;13.564;2023-02-15T10:41:06;62.40;;;30.83;;
23472;SDS011;11909;52.516;13.564;2023-02-15T10:43:48;66.53;;;31.85;;
23472;SDS011;11909;52.516;13.564;2023-02-15T10:46:30;64.07;;;32.17;;
23472;SDS011;11909;52.516;13.564;2023-02-15T10:49:20;64.93;;;31.45;;
23472;SDS011;11909;52.516;13.564;2023-02-15T10:52:03;63.17;;;32.10;;
23472;SDS011;11909;52.516;13.564;2023-02-15T10:57:22;58.10;;;29.30;;
23472;SDS011;11909;52.516;13.564;2023-02-15T10:59:58;60.00;;;30.23;;
23472;SDS011;11909;52.516;13.564;2023-02-15T11:02:37;58.80;;;30.25;;
23472;SDS011;11909;52.516;13.564;2023-02-15T11:05:29;64.85;;;31.23;;
23472;SDS011;11909;52.516;13.564;2023-02-15T11:08:07;59.13;;;30.65;;
23472;SDS011;11909;52.516;13.564;2023-02-15T11:10:38;59.75;;;31.33;;
23472;SDS011;11909;52.516;13.564;2023-02-15T11:13:09;62.85;;;30.85;;
23472;SDS011;11909;52.516;13.564;2023-02-15T11:15:44;57.35;;;30.10;;
23472;SDS011;11909;52.516;13.564;2023-02-15T11:18:16;55.20;;;30.10;;
23472;SDS011;11909;52.516;13.564;2023-02-15T11:20:53;59.53;;;31.67;;
23472;SDS011;11909;52.516;13.564;2023-02-15T11:25:53;53.45;;;28.45;;
23472;SDS011;11909;52.516;13.564;2023-02-15T11:28:24;52.38;;;28.02;;
23472;SDS011;11909;52.516;13.564;2023-02-15T11:31:00;51.25;;;28.40;;
23472;SDS011;11909;52.516;13.564;2023-02-15T11:33:39;49.13;;;26.88;;
23472;SDS011;11909;52.516;13.564;2023-02-15T11:36:12;56.63;;;30.23;;
23472;SDS011;11909;52.516;13.564;2023-02-15T11:38:43;51.70;;;28.95;;
23472;SDS011;11909;52.516;13.564;2023-02-15T11:41:13;47.97;;;28.25;;
23472;SDS011;11909;52.516;13.564;2023-02-15T11:43:46;48.00;;;26.83;;
23472;SDS011;11909;52.516;13.564;2023-02-15T11:46:21;46.22;;;25.05;;
23472;SDS011;11909;52.516;13.564;2023-02-15T11:48:50;46.97;;;25.45;;
23472;SDS011;11909;52.516;13.564;2023-02-15T11:51:18;43.28;;;25.00;;
23472;SDS011;11909;52.516;13.564;2023-02-15T11:53:49;39.83;;;23.38;;
23472;SDS011;11909;52.516;13.564;2023-02-15T11:56:19;39.80;;;23.95;;
23472;SDS011;11909;52.516;13.564;2023-02-15T11:58:51;42.47;;;24.35;;
23472;SDS011;11909;52.516;13.564;2023-02-15T12:01:27;42.03;;;23.17;;
23472;SDS011;11909;52.516;13.564;2023-02-15T12:03:58;41.08;;;24.33;;
23472;SDS011;11909;52.516;13.564;2023-02-15T12:06:30;40.85;;;23.42;;
23472;SDS011;11909;52.516;13.564;2023-02-15T12:09:03;41.47;;;23.85;;
23472;SDS011;11909;52.516;13.564;2023-02-15T12:11:37;47.22;;;23.85;;
23472;SDS011;11909;52.516;13.564;2023-02-15T12:14:07;48.58;;;23.38;;
23472;SDS011;11909;52.516;13.564;2023-02-15T12:16:42;51.38;;;24.83;;
23472;SDS011;11909;52.516;13.564;2023-02-15T12:19:27;59.38;;;24.02;;
23472;SDS011;11909;52.516;13.564;2023-02-15T12:21:58;56.38;;;24.73;;
23472;SDS011;11909;52.516;13.564;2023-02-15T12:24:28;49.53;;;24.77;;
23472;SDS011;11909;52.516;13.564;2023-02-15T12:27:00;45.53;;;23.70;;
23472;SDS011;11909;52.516;13.564;2023-02-15T12:29:30;41.35;;;23.10;;
23472;SDS011;11909;52.516;13.564;2023-02-15T12:32:04;43.70;;;23.10;;
23472;SDS011;11909;52.516;13.564;2023-02-15T12:34:37;40.92;;;21.98;;
23472;SDS011;11909;52.516;13.564;2023-02-15T12:37:09;35.17;;;21.58;;
23472;SDS011;11909;52.516;13.564;2023-02-15T12:39:50;36.63;;;22.00;;
23472;SDS011;11909;52.516;13.564;2023-02-15T12:42:19;39.60;;;23.15;;
23472;SDS011;11909;52.516;13.564;2023-02-15T12:44:55;37.67;;;22.35;;
23472;SDS011;11909;52.516;13.564;2023-02-15T12:47:27;37.45;;;19.40;;
23472;SDS011;11909;52.516;13.564;2023-02-15T12:50:07;28.77;;;17.67;;
23472;SDS011;11909;52.516;13.564;2023-02-15T12:52:44;40.60;;;18.90;;
23472;SDS011;11909;52.516;13.564;2023-02-15T12:57:49;36.67;;;20.27;;
23472;SDS011;11909;52.516;13.564;2023-02-15T13:00:32;37.83;;;21.02;;
23472;SDS011;11909;52.516;13.564;2023-02-15T13:03:02;34.40;;;21.48;;
23472;SDS011;11909;52.516;13.564;2023-02-15T13:05:32;35.65;;;20.70;;
23472;SDS011;11909;52.516;13.564;2023-02-15T13:08:03;32.03;;;19.67;;
23472;SDS011;11909;52.516;13.564;2023-02-15T13:10:39;34.97;;;20.73;;
23472;SDS011;11909;52.516;13.564;2023-02-15T13:13:10;30.92;;;19.85;;
23472;SDS011;11909;52.516;13.564;2023-02-15T13:15:48;31.67;;;19.80;;
23472;SDS011;11909;52.516;13.564;2023-02-15T13:18:23;32.08;;;18.85;;
23472;SDS011;11909;52.516;13.564;2023-02-15T13:20:56;32.00;;;18.83;;
23472;SDS011;11909;52.516;13.564;2023-02-15T13:23:28;31.67;;;19.55;;
23472;SDS011;11909;52.516;13.564;2023-02-15T13:25:58;34.20;;;19.98;;
23472;SDS011;11909;52.516;13.564;2023-02-15T13:28:32;30.02;;;18.67;;
23472;SDS011;11909;52.516;13.564;2023-02-15T13:31:07;29.63;;;18.42;;
23472;SDS011;11909;52.516;13.564;2023-02-15T13:33:43;27.35;;;18.15;;
23472;SDS011;11909;52.516;13.564;2023-02-15T13:36:15;25.98;;;18.13;;
23472;SDS011;11909;52.516;13.564;2023-02-15T13:38:58;29.48;;;18.40;;
23472;SDS011;11909;52.516;13.564;2023-02-15T13:41:40;30.70;;;18.77;;
23472;SDS011;11909;52.516;13.564;2023-02-15T13:44:18;36.08;;;19.60;;
23472;SDS011;11909;52.516;13.564;2023-02-15T13:47:07;33.80;;;19.95;;
23472;SDS011;11909;52.516;13.564;2023-02-15T13:49:47;30.10;;;18.38;;
23472;SDS011;11909;52.516;13.564;2023-02-15T13:52:27;28.88;;;17.92;;
23472;SDS011;11909;52.516;13.564;2023-02-15T13:58:15;31.23;;;20.13;;
23472;SDS011;11909;52.516;13.564;2023-02-15T14:00:56;33.80;;;19.65;;
23472;SDS011;11909;52.516;13.564;2023-02-15T14:09:47;27.67;;;17.65;;
23472;SDS011;11909;52.516;13.564;2023-02-15T14:12:31;43.38;;;20.92;;
23472;SDS011;11909;52.516;13.564;2023-02-15T14:18:05;32.80;;;19.02;;
23472;SDS011;11909;52.516;13.564;2023-02-15T14:20:43;30.35;;;18.80;;
23472;SDS011;11909;52.516;13.564;2023-02-15T14:23:24;30.25;;;18.17;;
23472;SDS011;11909;52.516;13.564;2023-02-15T14:26:02;28.42;;;16.77;;
23472;SDS011;11909;52.516;13.564;2023-02-15T14:28:37;28.30;;;17.73;;
23472;SDS011;11909;52.516;13.564;2023-02-15T14:31:13;31.60;;;18.15;;
23472;SDS011;11909;52.516;13.564;2023-02-15T14:33:43;27.38;;;15.95;;
23472;SDS011;11909;52.516;13.564;2023-02-15T14:36:18;26.08;;;17.17;;
23472;SDS011;11909;52.516;13.564;2023-02-15T14:38:50;25.45;;;16.80;;
23472;SDS011;11909;52.516;13.564;2023-02-15T14:41:24;28.52;;;18.30;;
23472;SDS011;11909;52.516;13.564;2023-02-15T14:44:01;26.52;;;17.60;;
23472;SDS011;11909;52.516;13.564;2023-02-15T14:46:38;28.88;;;18.35;;
23472;SDS011;11909;52.516;13.564;2023-02-15T14:49:14;28.60;;;17.23;;
23472;SDS011;11909;52.516;13.564;2023-02-15T14:51:57;28.42;;;16.55;;
23472;SDS011;11909;52.516;13.564;2023-02-15T14:57:26;33.40;;;17.10;;
23472;SDS011;11909;52.516;13.564;2023-02-15T15:00:00;26.05;;;16.50;;
23472;SDS011;11909;52.516;13.564;2023-02-15T15:02:45;24.58;;;16.85;;
23472;SDS011;11909;52.516;13.564;2023-02-15T15:07:57;22.48;;;15.43;;
23472;SDS011;11909;52.516;13.564;2023-02-15T15:10:39;22.10;;;15.30;;
23472;SDS011;11909;52.516;13.564;2023-02-15T15:18:58;23.95;;;15.98;;
23472;SDS011;11909;52.516;13.564;2023-02-15T15:33:25;25.17;;;16.23;;
23472;SDS011;11909;52.516;13.564;2023-02-15T15:36:14;27.80;;;16.23;;
23472;SDS011;11909;52.516;13.564;2023-02-15T15:39:05;23.10;;;15.25;;
23472;SDS011;11909;52.516;13.564;2023-02-15T15:41:46;21.48;;;15.75;;
23472;SDS011;11909;52.516;13.564;2023-02-15T15:47:31;22.40;;;14.18;;
23472;SDS011;11909;52.516;13.564;2023-02-15T15:50:11;21.70;;;15.13;;